Time;durP1;ratioP1;P1;durP2;ratioP2;P2;SDS_P1;SDS_P2;PMS_P1;PMS_P2;Temp;Humidity;BMP_temperature;BMP_pressure;BME280_temperature;BME280_humidity;BME280_pressure;Samples;Min_cycle;Max_cycle;Signal;HPM_P1;HPM_P2
2021/05/22 00:01:02;;;;;;;9.68;5.30;;;;;;;18.79;65.21;100046.66;5016557;28;20026;-67
2021/05/22 00:03:28;;;;;;;7.45;5.07;;;;;;;18.77;65.00;100054.00;5027357;28;20185;-67
2021/05/22 00:05:54;;;;;;;7.88;4.82;;;;;;;18.75;65.04;100050.75;5030613;28;20155;-68
2021/05/22 00:08:19;;;;;;;7.78;5.07;;;;;;;18.75;64.95;100055.22;5012677;28;20465;-67
2021/05/22 00:10:45;;;;;;;8.88;4.90;;;;;;;18.73;64.81;100051.97;5029547;28;20124;-71
2021/05/22 00:13:11;;;;;;;7.07;4.70;;;;;;;18.72;64.91;100050.34;5031557;28;20029;-69
2021/05/22 00:15:37;;;;;;;7.18;4.78;;;;;;;18.70;64.96;100050.56;4994801;28;20029;-67
2021/05/22 00:18:02;;;;;;;6.40;4.70;;;;;;;18.68;65.05;100049.13;5026051;28;20040;-67
2021/05/22 00:20:28;;;;;;;7.43;4.53;;;;;;;18.67;65.17;100052.81;4994273;28;20092;-68
2021/05/22 00:22:53;;;;;;;6.95;4.53;;;;;;;18.66;64.63;100044.03;5006731;28;20041;-67
2021/05/22 00:25:19;;;;;;;7.25;4.50;;;;;;;18.66;64.68;100052.00;5030834;28;20032;-67
2021/05/22 00:27:44;;;;;;;6.05;4.22;;;;;;;18.65;64.69;100062.84;5010154;28;20037;-67
2021/05/22 00:30:11;;;;;;;7.43;4.60;;;;;;;18.64;64.53;100054.06;5013910;28;20037;-67
2021/05/22 00:32:37;;;;;;;7.35;4.10;;;;;;;18.62;64.78;100065.88;5030490;28;20084;-71
2021/05/22 00:35:03;;;;;;;7.45;4.45;;;;;;;18.61;64.53;100057.06;5021137;28;20053;-70
2021/05/22 00:37:28;;;;;;;6.32;3.92;;;;;;;18.60;64.75;100060.75;5031486;28;20314;-68
2021/05/22 00:39:54;;;;;;;6.82;3.97;;;;;;;18.59;64.97;100072.41;5029709;28;20060;-67
2021/05/22 00:42:19;;;;;;;8.38;3.80;;;;;;;18.59;64.52;100075.06;5065163;28;20136;-67
2021/05/22 00:45:08;;;;;;;8.48;3.83;;;;;;;18.53;64.89;100073.25;5035901;28;20089;-69
2021/05/22 00:47:34;;;;;;;6.65;4.00;;;;;;;18.54;64.58;100080.19;5060853;28;20046;-67
2021/05/22 00:49:59;;;;;;;6.85;3.58;;;;;;;18.53;64.66;100082.03;5051216;28;20013;-67
2021/05/22 00:52:25;;;;;;;6.05;3.75;;;;;;;18.53;64.29;100082.03;5050175;28;20652;-72
2021/05/22 00:54:52;;;;;;;6.68;3.67;;;;;;;18.52;64.59;100092.88;5045010;28;20053;-69
2021/05/22 00:57:18;;;;;;;6.70;3.58;;;;;;;18.50;64.44;100087.78;5066271;28;20036;-76
2021/05/22 00:59:44;;;;;;;5.90;3.33;;;;;;;18.50;64.50;100097.56;5046884;28;20520;-67
2021/05/22 01:02:11;;;;;;;6.75;3.65;;;;;;;18.49;64.21;100098.59;5041809;28;20041;-67
2021/05/22 01:04:37;;;;;;;6.22;3.17;;;;;;;18.48;64.42;100091.66;5042348;28;20098;-70
2021/05/22 01:07:02;;;;;;;5.00;3.38;;;;;;;18.48;64.26;100094.31;5041550;28;20511;-68
2021/05/22 01:09:29;;;;;;;5.93;3.35;;;;;;;18.47;64.23;100095.34;5036372;28;20036;-68
2021/05/22 01:11:57;;;;;;;4.93;3.28;;;;;;;18.46;64.05;100089.22;5040826;28;20110;-67
2021/05/22 01:14:31;;;;;;;6.80;3.50;;;;;;;18.42;63.94;100085.31;5069510;28;20062;-68
2021/05/22 01:16:59;;;;;;;6.53;3.63;;;;;;;18.43;64.04;100081.63;5069920;28;20059;-68
2021/05/22 01:19:27;;;;;;;7.03;3.40;;;;;;;18.43;63.97;100083.47;5069769;28;20040;-67
2021/05/22 01:21:53;;;;;;;5.47;3.28;;;;;;;18.42;64.24;100081.84;5060794;28;20033;-68
2021/05/22 01:24:22;;;;;;;6.05;2.95;;;;;;;18.39;63.85;100096.34;5088567;22;20056;-64
2021/05/22 01:26:50;;;;;;;5.70;2.85;;;;;;;18.39;63.95;100093.69;5088535;28;20056;-61
2021/05/22 01:29:16;;;;;;;4.63;2.65;;;;;;;18.38;63.91;100088.59;5068349;28;20036;-64
2021/05/22 01:31:42;;;;;;;6.00;2.70;;;;;;;18.38;64.12;100096.56;5087232;28;21429;-61
2021/05/22 01:34:08;;;;;;;5.38;2.78;;;;;;;18.36;64.10;100104.75;5088455;28;20160;-61
2021/05/22 01:36:34;;;;;;;5.47;2.72;;;;;;;18.35;63.84;100099.63;5079667;28;20032;-61
2021/05/22 01:38:59;;;;;;;5.03;2.50;;;;;;;18.33;63.95;100110.47;5054230;28;20036;-61
2021/05/22 01:41:25;;;;;;;6.18;2.90;;;;;;;18.33;63.78;100109.66;5070902;28;20036;-63
2021/05/22 01:43:54;;;;;;;6.38;2.50;;;;;;;18.31;63.71;100109.84;5085046;28;20044;-64
2021/05/22 01:46:21;;;;;;;6.60;2.70;;;;;;;18.32;63.83;100115.97;5084749;28;20098;-61
2021/05/22 01:48:46;;;;;;;5.97;2.78;;;;;;;18.30;63.64;100116.16;5081997;28;20044;-62
2021/05/22 01:51:14;;;;;;;5.55;2.60;;;;;;;18.30;63.72;100112.69;5060226;28;20082;-61
2021/05/22 01:53:41;;;;;;;4.82;2.60;;;;;;;18.29;63.89;100114.53;5088336;28;20390;-61
2021/05/22 01:56:08;;;;;;;5.47;2.42;;;;;;;18.27;63.87;100120.03;5082108;28;20119;-61
2021/05/22 01:58:34;;;;;;;6.57;2.63;;;;;;;18.26;63.58;100129.03;5082081;28;20059;-61
2021/05/22 02:01:00;;;;;;;4.90;2.42;;;;;;;18.26;63.91;100123.72;5065286;28;20082;-60
2021/05/22 02:03:35;;;;;;;6.63;2.40;;;;;;;18.24;63.39;100130.25;5070036;28;20040;-65
2021/05/22 02:06:06;;;;;;;6.28;2.45;;;;;;;18.24;63.64;100138.22;5048296;28;20101;-67
2021/05/22 02:08:36;;;;;;;5.20;2.50;;;;;;;18.24;63.26;100138.22;5089912;28;20458;-61
2021/05/22 02:11:02;;;;;;;5.03;2.30;;;;;;;18.23;63.35;100131.28;5082503;28;20032;-63
2021/05/22 02:13:27;;;;;;;5.32;2.47;;;;;;;18.21;63.63;100147.41;5082890;28;20047;-61
2021/05/22 02:16:04;;;;;;;4.10;2.30;;;;;;;18.19;63.26;100148.66;5063301;28;20032;-62
2021/05/22 02:18:33;;;;;;;7.55;2.67;;;;;;;18.21;63.34;100151.91;5085041;28;20020;-61
2021/05/22 02:21:01;;;;;;;4.93;2.45;;;;;;;18.19;63.27;100149.47;5088217;28;20376;-62
2021/05/22 02:23:27;;;;;;;4.40;2.22;;;;;;;18.19;63.24;100156.63;5051741;28;20037;-64
2021/05/22 02:25:55;;;;;;;5.93;2.40;;;;;;;18.19;63.56;100151.31;5056233;28;20053;-61
2021/05/22 02:28:21;;;;;;;4.90;2.22;;;;;;;18.19;63.04;100151.31;5087631;28;20068;-68
2021/05/22 02:30:47;;;;;;;4.38;1.90;;;;;;;18.17;63.18;100154.16;5089507;28;20115;-61
2021/05/22 02:33:15;;;;;;;4.20;2.20;;;;;;;18.17;63.11;100161.31;5088934;28;20470;-61
2021/05/22 02:35:42;;;;;;;4.65;2.10;;;;;;;18.16;63.29;100163.16;5058302;28;20131;-63
2021/05/22 02:38:22;;;;;;;5.15;2.20;;;;;;;18.16;63.18;100149.88;5082429;28;20129;-61
2021/05/22 02:40:51;;;;;;;4.65;1.90;;;;;;;18.16;63.30;100162.34;5078628;28;20083;-62
2021/05/22 02:43:17;;;;;;;3.78;1.70;;;;;;;18.15;63.31;100166.81;5081846;28;20059;-62
2021/05/22 02:45:45;;;;;;;4.13;2.03;;;;;;;18.15;63.13;100163.34;5083305;28;20119;-65
2021/05/22 02:48:17;;;;;;;5.38;1.70;;;;;;;18.14;63.07;100170.47;5082268;28;20036;-63
2021/05/22 02:50:49;;;;;;;4.55;1.92;;;;;;;18.12;62.95;100166.41;5080600;28;20027;-60
2021/05/22 02:53:18;;;;;;;3.92;1.98;;;;;;;18.13;62.88;100165.38;5084488;28;20036;-61
2021/05/22 02:55:47;;;;;;;4.65;1.92;;;;;;;18.12;62.83;100171.69;5063993;28;20119;-61
2021/05/22 02:58:15;;;;;;;4.45;1.85;;;;;;;18.13;63.33;100176.00;5076981;28;20372;-63
2021/05/22 03:00:41;;;;;;;3.50;1.98;;;;;;;18.11;62.81;100175.38;5067741;28;20047;-63
2021/05/22 03:03:07;;;;;;;3.92;1.55;;;;;;;18.11;63.06;100180.69;5088474;28;20039;-61
2021/05/22 03:05:33;;;;;;;4.00;1.60;;;;;;;18.10;62.80;100181.72;5069606;28;20411;-61
2021/05/22 03:08:00;;;;;;;3.25;1.65;;;;;;;18.10;62.64;100187.00;5073209;28;20086;-61
2021/05/22 03:10:26;;;;;;;3.88;1.58;;;;;;;18.08;63.01;100187.22;5088786;28;20047;-62
2021/05/22 03:12:52;;;;;;;4.38;2.15;;;;;;;18.08;62.96;100184.56;5086697;28;20058;-63
2021/05/22 03:15:17;;;;;;;4.22;1.75;;;;;;;18.06;63.32;100183.94;5070254;28;20486;-61
2021/05/22 03:17:43;;;;;;;4.55;1.70;;;;;;;18.08;62.79;100191.72;5069598;28;20068;-61
2021/05/22 03:20:09;;;;;;;3.83;1.75;;;;;;;18.06;62.72;100199.06;5074717;28;20031;-62
2021/05/22 03:22:34;;;;;;;2.65;1.50;;;;;;;18.06;62.46;100194.56;5088776;28;20135;-60
2021/05/22 03:25:00;;;;;;;4.63;1.67;;;;;;;18.05;62.84;100202.75;5085006;28;20162;-61
2021/05/22 03:27:26;;;;;;;3.25;1.45;;;;;;;18.05;62.88;100210.69;5047176;28;20036;-61
2021/05/22 03:29:52;;;;;;;3.40;1.50;;;;;;;18.04;62.81;100209.88;5086054;28;20111;-61
2021/05/22 03:32:18;;;;;;;4.68;1.60;;;;;;;18.04;62.68;100206.41;5075492;28;20066;-61
2021/05/22 03:34:43;;;;;;;4.55;1.83;;;;;;;18.04;62.45;100209.06;5042020;28;20037;-61
2021/05/22 03:37:09;;;;;;;3.40;1.58;;;;;;;18.03;62.71;100212.75;5031762;28;21001;-61
2021/05/22 03:39:34;;;;;;;3.40;1.50;;;;;;;18.03;62.73;100212.75;5064339;28;20055;-64
2021/05/22 03:42:00;;;;;;;3.35;1.60;;;;;;;18.02;62.68;100214.56;5070634;28;20058;-61
2021/05/22 03:44:26;;;;;;;2.78;1.45;;;;;;;18.01;62.72;100220.09;5093189;28;20568;-62
2021/05/22 03:46:51;;;;;;;5.05;1.73;;;;;;;18.01;62.68;100230.69;5092007;28;20063;-67
2021/05/22 03:49:17;;;;;;;2.88;1.42;;;;;;;18.01;62.43;100228.06;5084773;28;20036;-61
2021/05/22 03:51:42;;;;;;;3.67;1.38;;;;;;;18.00;62.53;100229.88;5086087;28;20029;-62
2021/05/22 03:54:08;;;;;;;4.25;1.50;;;;;;;18.00;62.53;100226.41;5087298;28;20036;-61
2021/05/22 03:56:33;;;;;;;3.67;1.45;;;;;;;17.99;62.56;100232.72;5085018;28;20115;-61
2021/05/22 03:58:59;;;;;;;3.00;1.17;;;;;;;17.98;62.65;100228.41;5088894;28;20059;-61
2021/05/22 04:01:25;;;;;;;2.65;1.30;;;;;;;17.97;62.37;100232.91;5076197;28;20040;-67
2021/05/22 04:03:50;;;;;;;3.83;1.48;;;;;;;17.96;62.31;100237.41;5091769;28;20082;-64
2021/05/22 04:06:16;;;;;;;3.17;1.50;;;;;;;17.95;62.27;100240.25;5073841;28;20370;-61
2021/05/22 04:08:42;;;;;;;5.10;1.65;;;;;;;17.94;62.40;100239.44;5038241;28;20464;-62
2021/05/22 04:11:07;;;;;;;3.20;1.50;;;;;;;17.94;62.59;100252.72;5063380;28;20040;-60
2021/05/22 04:13:33;;;;;;;3.05;1.33;;;;;;;17.94;62.03;100246.59;5072462;28;20024;-62
2021/05/22 04:15:58;;;;;;;3.03;1.20;;;;;;;17.93;62.04;100242.31;5091880;28;20036;-61
2021/05/22 04:18:24;;;;;;;4.78;1.50;;;;;;;17.92;62.38;100246.78;5091062;28;20036;-67
2021/05/22 04:20:49;;;;;;;3.05;1.40;;;;;;;17.91;62.40;100245.16;5070523;28;20032;-61
2021/05/22 04:23:15;;;;;;;3.22;1.48;;;;;;;17.92;62.30;100246.78;5073005;28;20857;-60
2021/05/22 04:25:40;;;;;;;2.50;1.30;;;;;;;17.90;61.81;100248.00;5072074;28;20048;-63
2021/05/22 04:28:07;;;;;;;2.90;1.27;;;;;;;17.90;62.08;100254.13;5091132;28;20047;-61
2021/05/22 04:30:32;;;;;;;2.30;1.20;;;;;;;17.90;62.29;100261.28;5090874;28;20028;-60
2021/05/22 04:32:58;;;;;;;2.50;1.33;;;;;;;17.89;62.18;100260.47;5072400;28;20039;-61
2021/05/22 04:35:23;;;;;;;3.05;1.33;;;;;;;17.89;61.90;100268.41;5071847;28;20185;-61
2021/05/22 04:37:49;;;;;;;3.83;1.73;;;;;;;17.88;62.01;100266.78;5089988;28;20044;-61
2021/05/22 04:40:14;;;;;;;2.65;1.42;;;;;;;17.88;62.13;100269.44;5073175;28;20499;-61
2021/05/22 04:42:40;;;;;;;3.40;1.27;;;;;;;17.87;62.24;100262.50;5057632;28;20038;-61
2021/05/22 04:45:07;;;;;;;2.38;1.13;;;;;;;17.87;61.77;100273.13;5082418;28;20040;-64
2021/05/22 04:47:34;;;;;;;2.95;1.25;;;;;;;17.87;61.77;100274.94;5071377;28;20039;-61
2021/05/22 04:49:59;;;;;;;3.28;1.27;;;;;;;17.85;62.09;100272.50;5069965;28;20451;-60
2021/05/22 04:52:25;;;;;;;2.78;1.10;;;;;;;17.85;62.09;100275.16;5066569;28;20038;-61
2021/05/22 04:54:51;;;;;;;2.35;1.10;;;;;;;17.85;62.20;100271.69;5079786;28;20147;-62
2021/05/22 04:57:17;;;;;;;3.25;1.30;;;;;;;17.86;61.83;100286.59;5071047;28;20046;-62
2021/05/22 04:59:42;;;;;;;2.72;1.13;;;;;;;17.85;62.03;100285.75;5059943;28;20460;-61
2021/05/22 05:02:08;;;;;;;2.92;1.30;;;;;;;17.85;61.69;100290.25;5063527;28;20110;-61
2021/05/22 05:04:33;;;;;;;2.28;1.10;;;;;;;17.83;62.19;100290.44;5080252;28;20039;-61
2021/05/22 05:06:59;;;;;;;3.80;1.40;;;;;;;17.85;61.98;100292.91;5067430;28;20452;-61
2021/05/22 05:09:25;;;;;;;2.97;1.23;;;;;;;17.84;62.02;100299.22;5077872;28;20372;-61
2021/05/22 05:11:50;;;;;;;4.13;1.25;;;;;;;17.84;61.95;100302.69;5059104;28;20044;-63
2021/05/22 05:14:16;;;;;;;2.85;1.10;;;;;;;17.82;61.59;100299.41;5061701;28;20036;-63
2021/05/22 05:16:41;;;;;;;2.90;1.20;;;;;;;17.83;62.00;100297.56;5067850;28;20115;-62
2021/05/22 05:19:07;;;;;;;2.83;1.00;;;;;;;17.81;61.72;100297.75;5077321;28;20040;-62
2021/05/22 05:21:32;;;;;;;2.83;1.02;;;;;;;17.80;61.69;100298.78;5061498;28;20469;-61
2021/05/22 05:23:58;;;;;;;3.20;1.20;;;;;;;17.80;61.90;100300.63;5083233;28;20041;-61
2021/05/22 05:26:23;;;;;;;2.95;1.20;;;;;;;17.81;61.56;100297.75;5060393;28;20032;-62
2021/05/22 05:28:49;;;;;;;2.67;1.10;;;;;;;17.80;61.89;100305.91;5077027;28;20119;-61
2021/05/22 05:31:14;;;;;;;2.17;1.10;;;;;;;17.79;61.35;100302.44;5078187;28;20029;-61
2021/05/22 05:33:40;;;;;;;2.50;1.05;;;;;;;17.79;61.73;100302.44;5085587;28;20085;-61
2021/05/22 05:36:05;;;;;;;2.92;1.00;;;;;;;17.78;61.51;100300.81;5076026;28;20046;-63
2021/05/22 05:38:32;;;;;;;3.90;1.20;;;;;;;17.79;61.45;100307.75;5069854;28;20047;-62
2021/05/22 05:40:57;;;;;;;3.25;1.08;;;;;;;17.79;61.53;100317.56;5083661;28;20115;-62
2021/05/22 05:43:23;;;;;;;3.15;1.20;;;;;;;17.79;61.41;100315.72;5062939;28;20555;-61
2021/05/22 05:45:49;;;;;;;3.63;1.30;;;;;;;17.78;61.47;100314.09;5066893;28;20104;-61
2021/05/22 05:48:14;;;;;;;1.70;1.00;;;;;;;17.79;61.53;100315.72;5086489;28;20036;-61
2021/05/22 05:50:40;;;;;;;2.17;1.00;;;;;;;17.78;61.41;100319.38;5089075;28;20086;-61
2021/05/22 05:53:05;;;;;;;2.92;1.20;;;;;;;17.78;61.46;100322.03;5063527;28;20433;-62
2021/05/22 05:55:31;;;;;;;2.58;1.02;;;;;;;17.78;61.51;100321.22;5083137;28;20031;-62
2021/05/22 05:57:56;;;;;;;2.30;1.10;;;;;;;17.78;61.31;100321.22;5084965;28;20039;-62
2021/05/22 06:00:23;;;;;;;3.80;1.52;;;;;;;17.79;61.28;100328.16;5060220;28;20025;-61
2021/05/22 06:02:49;;;;;;;1.90;1.00;;;;;;;17.78;61.26;100330.00;5076687;28;20060;-63
2021/05/22 06:05:16;;;;;;;3.50;1.35;;;;;;;17.78;61.11;100331.84;5059477;28;20174;-61
2021/05/22 06:07:42;;;;;;;2.08;1.02;;;;;;;17.78;61.26;100329.19;5081856;28;20028;-62
2021/05/22 06:10:08;;;;;;;2.70;1.08;;;;;;;17.77;61.19;100333.66;5057858;28;20105;-61
2021/05/22 06:12:34;;;;;;;2.83;1.10;;;;;;;17.77;61.23;100333.66;5081245;28;20048;-61
2021/05/22 06:17:42;;;;;;;2.10;1.00;;;;;;;17.77;61.56;100338.97;5081556;28;20031;-64
2021/05/22 06:20:08;;;;;;;2.55;1.00;;;;;;;17.76;61.17;100337.34;5077414;28;20086;-63
2021/05/22 06:22:33;;;;;;;1.90;1.00;;;;;;;17.76;61.26;100350.59;5079041;28;20044;-60
2021/05/22 06:24:59;;;;;;;1.85;0.95;;;;;;;17.75;61.22;100346.31;5075406;28;20080;-61
2021/05/22 06:27:25;;;;;;;3.25;1.00;;;;;;;17.75;61.00;100356.09;5078032;28;20033;-61
2021/05/22 06:29:50;;;;;;;5.63;1.50;;;;;;;17.75;61.00;100350.81;5050661;28;20040;-62
2021/05/22 06:32:16;;;;;;;3.55;1.15;;;;;;;17.76;61.26;100350.59;5059587;28;20028;-66
2021/05/22 06:34:41;;;;;;;2.00;0.90;;;;;;;17.76;61.12;100358.56;5079947;28;20703;-65
2021/05/22 06:37:07;;;;;;;2.45;1.10;;;;;;;17.77;61.11;100364.69;5068329;28;20039;-59
2021/05/22 06:39:32;;;;;;;2.70;1.00;;;;;;;17.77;61.09;100368.16;5064448;28;20060;-61
2021/05/22 06:41:58;;;;;;;3.40;1.30;;;;;;;17.78;61.09;100366.31;5075031;28;20036;-60
2021/05/22 06:44:33;;;;;;;5.95;1.17;;;;;;;17.77;60.97;100362.03;5087122;28;20032;-59
2021/05/22 06:46:59;;;;;;;2.85;1.20;;;;;;;17.78;61.22;100372.44;5067328;28;20078;-59
2021/05/22 06:49:24;;;;;;;2.53;1.05;;;;;;;17.79;61.54;100381.22;5087231;28;20478;-60
2021/05/22 06:51:50;;;;;;;4.05;1.17;;;;;;;17.79;61.29;100386.53;5077531;28;20117;-60
2021/05/22 06:54:16;;;;;;;3.50;1.10;;;;;;;17.77;61.53;100376.13;5079994;28;20028;-65
2021/05/22 06:56:41;;;;;;;5.43;1.08;;;;;;;17.79;61.63;100378.56;5075933;28;20032;-61
2021/05/22 06:59:07;;;;;;;3.50;1.25;;;;;;;17.78;61.50;100380.41;5063533;28;20032;-59
2021/05/22 07:01:32;;;;;;;3.38;1.20;;;;;;;17.80;61.60;100380.22;5063128;28;20035;-59
2021/05/22 07:03:58;;;;;;;6.97;1.20;;;;;;;17.79;61.36;100382.03;5079903;28;20028;-60
2021/05/22 07:06:24;;;;;;;4.68;1.20;;;;;;;17.81;61.75;100382.66;5079494;28;20535;-58
2021/05/22 07:08:54;;;;;;;4.35;1.63;;;;;;;17.83;61.81;100385.13;5084656;28;20039;-58
2021/05/22 07:11:20;;;;;;;5.00;1.58;;;;;;;17.82;62.16;100386.94;5083073;28;20073;-59
2021/05/22 07:13:46;;;;;;;7.50;1.33;;;;;;;17.84;62.04;100386.78;5066366;28;20490;-65
2021/05/22 07:16:11;;;;;;;4.35;1.10;;;;;;;17.80;60.90;100394.28;5069702;28;20053;-60
2021/05/22 07:18:37;;;;;;;5.15;1.10;;;;;;;17.76;60.44;100397.53;5068815;28;20039;-60
2021/05/22 07:21:02;;;;;;;4.88;1.10;;;;;;;17.69;59.16;100400.16;5085345;28;20055;-61
2021/05/22 07:23:28;;;;;;;6.43;1.10;;;;;;;17.63;58.85;100407.00;5085447;28;21306;-63
2021/05/22 07:25:53;;;;;;;6.78;1.08;;;;;;;17.60;58.09;100401.28;5040708;28;20377;-60
2021/05/22 07:28:19;;;;;;;5.82;1.38;;;;;;;17.59;58.01;100399.63;5060596;28;20044;-58
2021/05/22 07:30:44;;;;;;;4.05;1.23;;;;;;;17.61;57.98;100408.22;5059589;28;20403;-59
2021/05/22 07:33:10;;;;;;;7.25;1.20;;;;;;;17.63;57.68;100400.88;5067348;28;20472;-59
2021/05/22 07:35:35;;;;;;;4.38;1.05;;;;;;;17.66;57.89;100401.31;5063379;28;20033;-59
2021/05/22 07:38:01;;;;;;;5.40;1.30;;;;;;;17.69;57.48;100408.13;5065813;28;20040;-63
2021/05/22 07:40:26;;;;;;;4.68;1.02;;;;;;;17.73;57.04;100413.84;5066857;28;20519;-59
2021/05/22 07:42:52;;;;;;;5.20;1.27;;;;;;;17.76;56.79;100411.63;5061541;28;20040;-61
2021/05/22 07:45:18;;;;;;;3.30;1.20;;;;;;;17.78;56.66;100403.47;5063699;28;20079;-59
2021/05/22 07:47:45;;;;;;;7.28;1.02;;;;;;;17.82;56.40;100402.06;5062420;28;20068;-66
2021/05/22 07:50:12;;;;;;;3.67;0.85;;;;;;;17.83;56.36;100412.50;5066466;28;20032;-58
2021/05/22 07:52:40;;;;;;;4.88;1.40;;;;;;;17.84;56.27;100411.47;5054689;28;20087;-60
2021/05/22 07:55:10;;;;;;;5.78;0.95;;;;;;;17.84;56.00;100416.78;5057926;28;20032;-59
2021/05/22 07:57:36;;;;;;;5.72;1.23;;;;;;;17.85;55.71;100425.56;5058720;28;20029;-61
2021/05/22 08:00:03;;;;;;;6.47;1.15;;;;;;;17.83;55.32;100417.81;5060693;28;20078;-62
2021/05/22 08:02:28;;;;;;;6.20;1.10;;;;;;;17.83;55.24;100419.59;5062502;28;20040;-69
2021/05/22 08:04:54;;;;;;;8.70;1.10;;;;;;;17.82;54.80;100428.59;5062305;28;20098;-63
2021/05/22 08:07:19;;;;;;;4.55;1.20;;;;;;;17.80;54.71;100426.13;5062054;28;20036;-60
2021/05/22 08:09:45;;;;;;;8.00;1.25;;;;;;;17.81;54.74;100430.41;5061839;28;20064;-59
2021/05/22 08:12:10;;;;;;;6.95;0.95;;;;;;;17.80;54.52;100430.63;5043820;28;20411;-60
2021/05/22 08:14:36;;;;;;;5.93;1.02;;;;;;;17.79;54.04;100432.44;5047478;28;20059;-62
2021/05/22 08:17:01;;;;;;;5.80;1.00;;;;;;;17.79;53.88;100436.94;5058365;28;20056;-59
2021/05/22 08:19:27;;;;;;;4.80;1.23;;;;;;;17.77;53.45;100421.22;5057976;28;20040;-60
2021/05/22 08:21:52;;;;;;;6.22;1.60;;;;;;;17.78;53.30;100428.16;5061481;28;20492;-61
2021/05/22 08:24:18;;;;;;;3.15;0.93;;;;;;;17.78;53.27;100430.00;5043458;28;20448;-63
2021/05/22 08:26:43;;;;;;;15.70;1.80;;;;;;;17.78;52.71;100432.66;5059390;28;20533;-62
2021/05/22 08:29:09;;;;;;;4.40;1.00;;;;;;;17.77;52.65;100436.31;5053123;28;20040;-61
2021/05/22 08:31:36;;;;;;;3.72;1.23;;;;;;;17.77;52.67;100441.63;5067418;28;20044;-59
2021/05/22 08:34:02;;;;;;;3.78;0.88;;;;;;;17.74;51.90;100445.50;5063865;28;20090;-62
2021/05/22 08:36:28;;;;;;;4.50;1.08;;;;;;;17.74;51.62;100449.97;5064106;28;20032;-60
2021/05/22 08:38:55;;;;;;;3.78;1.17;;;;;;;17.73;51.64;100445.69;5056517;28;20439;-61
2021/05/22 08:41:21;;;;;;;8.45;1.38;;;;;;;17.72;51.27;100452.81;5062171;28;20038;-60
2021/05/22 08:43:48;;;;;;;4.13;1.02;;;;;;;17.70;51.36;100449.56;5065920;28;20434;-60
2021/05/22 08:46:16;;;;;;;2.72;0.82;;;;;;;17.69;51.10;100442.59;5058766;28;20033;-62
2021/05/22 08:48:43;;;;;;;3.97;1.00;;;;;;;17.69;50.92;100441.78;5053317;28;20040;-62
2021/05/22 08:51:09;;;;;;;5.43;1.00;;;;;;;17.68;50.54;100456.88;5060183;28;20086;-61
2021/05/22 08:53:35;;;;;;;3.65;1.00;;;;;;;17.67;50.64;100452.53;5055752;28;20032;-60
2021/05/22 08:56:02;;;;;;;6.43;1.10;;;;;;;17.67;50.63;100452.53;5058379;28;20417;-60
2021/05/22 08:58:27;;;;;;;7.45;1.25;;;;;;;17.66;50.27;100459.66;5057313;28;20028;-60
2021/05/22 09:00:53;;;;;;;3.10;1.00;;;;;;;17.66;50.39;100464.16;5069030;28;20037;-60
2021/05/22 09:03:19;;;;;;;9.57;1.15;;;;;;;17.64;50.14;100469.66;5061861;28;20033;-59
2021/05/22 09:05:45;;;;;;;3.20;0.98;;;;;;;17.63;50.23;100473.31;5053252;28;20033;-59
2021/05/22 09:08:15;;;;;;;3.00;0.95;;;;;;;17.65;50.48;100478.44;5065636;28;20789;-59
2021/05/22 09:10:46;;;;;;;5.43;1.02;;;;;;;17.63;50.30;100475.16;5067965;28;20555;-59
2021/05/22 09:13:24;;;;;;;4.60;1.08;;;;;;;17.61;50.35;100483.31;5065058;28;20476;-60
2021/05/22 09:15:57;;;;;;;6.60;1.25;;;;;;;17.63;50.69;100481.28;5066281;28;20060;-59
2021/05/22 09:18:24;;;;;;;3.63;0.93;;;;;;;17.66;51.15;100483.53;5068068;28;20044;-60
2021/05/22 09:20:50;;;;;;;3.70;1.23;;;;;;;17.68;51.27;100480.75;5067466;28;20029;-58
2021/05/22 09:23:24;;;;;;;6.68;1.30;;;;;;;17.68;51.47;100483.41;5066653;28;20032;-63
2021/05/22 09:25:54;;;;;;;3.95;1.05;;;;;;;17.71;51.36;100487.50;5082831;28;20044;-59
2021/05/22 09:28:23;;;;;;;3.90;0.80;;;;;;;17.71;51.30;100487.50;5087549;28;21990;-59
2021/05/22 09:30:50;;;;;;;2.72;0.70;;;;;;;17.71;51.19;100480.38;5086647;28;20785;-60
2021/05/22 09:33:18;;;;;;;6.10;1.23;;;;;;;17.72;51.18;100483.84;5088863;28;20085;-63
2021/05/22 09:35:58;;;;;;;5.03;0.93;;;;;;;17.70;50.83;100485.88;5079254;28;20050;-59
2021/05/22 09:38:44;;;;;;;3.38;1.00;;;;;;;17.71;50.97;100490.16;5079273;28;20028;-59
2021/05/22 09:41:16;;;;;;;7.20;1.00;;;;;;;17.69;50.87;100490.34;5057891;28;20511;-59
2021/05/22 09:43:42;;;;;;;3.25;0.98;;;;;;;17.71;51.33;100493.63;5077805;28;20024;-60
2021/05/22 09:46:10;;;;;;;4.43;0.82;;;;;;;17.70;51.03;100491.16;5071859;28;20051;-59
2021/05/22 09:48:36;;;;;;;2.58;0.93;;;;;;;17.69;51.03;100487.69;5076408;28;20288;-59
2021/05/22 09:51:03;;;;;;;5.85;1.20;;;;;;;17.69;50.64;100487.69;5069650;28;20039;-60
2021/05/22 09:53:35;;;;;;;10.88;1.27;;;;;;;17.67;50.93;100481.72;5078116;28;20031;-68
2021/05/22 09:56:27;;;;;;;14.32;2.05;;;;;;;17.65;50.39;100481.91;5053656;28;20092;-62
2021/05/22 09:59:02;;;;;;;8.15;1.25;;;;;;;17.69;50.41;100492.19;5073586;28;20062;-60
2021/05/22 10:01:32;;;;;;;5.68;1.15;;;;;;;17.66;49.32;100488.84;5088106;28;20032;-60
2021/05/22 10:04:18;;;;;;;7.13;1.10;;;;;;;17.56;48.81;100491.03;5089454;28;20036;-60
2021/05/22 10:06:44;;;;;;;6.60;1.40;;;;;;;17.53;48.49;100496.72;5088378;28;20136;-60
2021/05/22 10:09:14;;;;;;;4.78;1.55;;;;;;;17.47;48.28;100501.94;5089761;28;20218;-60
2021/05/22 10:12:06;;;;;;;3.85;1.00;;;;;;;17.37;47.69;100504.94;5090195;28;20127;-62
2021/05/22 10:14:51;;;;;;;5.07;1.27;;;;;;;17.31;47.67;100505.66;5077492;28;20036;-60
2021/05/22 10:17:17;;;;;;;5.95;1.05;;;;;;;17.31;47.62;100508.31;5063411;28;20478;-61
2021/05/22 10:19:43;;;;;;;3.78;1.45;;;;;;;17.28;47.01;100511.34;5088770;28;20032;-59
2021/05/22 10:22:09;;;;;;;4.40;1.33;;;;;;;17.26;47.02;100511.53;5066884;28;20119;-60
2021/05/22 10:24:34;;;;;;;4.88;1.00;;;;;;;17.22;46.77;100510.28;5088600;28;20483;-60
2021/05/22 10:27:00;;;;;;;5.70;1.15;;;;;;;17.20;46.44;100511.47;5085489;28;20036;-59
2021/05/22 10:29:28;;;;;;;2.92;0.80;;;;;;;17.18;46.39;100503.69;5086056;28;20437;-63
2021/05/22 10:31:54;;;;;;;2.42;0.80;;;;;;;17.17;46.08;100517.97;5052809;28;20032;-60
2021/05/22 10:34:22;;;;;;;2.88;0.80;;;;;;;17.15;45.91;100514.69;5089017;28;20038;-59
2021/05/22 10:36:52;;;;;;;3.38;0.80;;;;;;;17.11;45.82;100515.25;5068784;28;20105;-60
2021/05/22 10:39:43;;;;;;;3.58;0.75;;;;;;;17.06;45.67;100516.63;5088783;28;20079;-60
2021/05/22 10:42:29;;;;;;;2.50;0.80;;;;;;;17.10;45.60;100510.97;5089372;28;20032;-60
2021/05/22 10:44:56;;;;;;;3.22;0.90;;;;;;;17.05;45.60;100515.00;5087413;28;20530;-59
2021/05/22 10:47:28;;;;;;;3.28;0.70;;;;;;;17.03;45.53;100518.81;5088342;28;20032;-60
2021/05/22 10:49:59;;;;;;;4.53;0.90;;;;;;;17.00;45.35;100522.66;5083797;28;20147;-60
2021/05/22 10:52:26;;;;;;;3.17;0.82;;;;;;;17.00;45.09;100522.66;5077145;28;20028;-59
2021/05/22 10:55:07;;;;;;;4.22;0.70;;;;;;;16.96;44.88;100520.59;5070479;28;20040;-60
2021/05/22 10:57:45;;;;;;;2.70;0.70;;;;;;;16.96;44.68;100525.88;5049926;28;20025;-60
2021/05/22 11:00:13;;;;;;;1.88;0.68;;;;;;;16.97;45.10;100527.53;5081330;28;20032;-59
2021/05/22 11:02:41;;;;;;;1.77;0.60;;;;;;;16.96;44.78;100524.06;5089038;28;20106;-59
2021/05/22 11:05:22;;;;;;;3.17;0.63;;;;;;;16.91;44.62;100526.44;5074682;28;20032;-60
2021/05/22 11:08:08;;;;;;;3.47;0.70;;;;;;;16.90;44.36;100534.59;5079025;28;20498;-59
2021/05/22 11:10:37;;;;;;;1.80;0.60;;;;;;;16.92;44.62;100533.41;5057855;28;20059;-60
2021/05/22 11:13:18;;;;;;;3.13;0.70;;;;;;;16.90;44.33;100529.28;5061590;28;20051;-60
2021/05/22 11:15:48;;;;;;;4.80;0.70;;;;;;;16.90;44.63;100537.25;5074992;28;20408;-61
2021/05/22 11:18:16;;;;;;;2.90;0.77;;;;;;;16.91;44.48;100530.94;5077730;28;20036;-60
2021/05/22 11:20:44;;;;;;;3.08;0.70;;;;;;;16.91;44.24;100534.41;5080240;28;20434;-60
2021/05/22 11:23:10;;;;;;;1.38;0.70;;;;;;;16.91;44.35;100528.28;5082594;28;20035;-60
2021/05/22 11:25:47;;;;;;;1.73;0.60;;;;;;;16.88;44.30;100533.94;5061943;28;20051;-59
2021/05/22 11:28:21;;;;;;;2.65;0.98;;;;;;;16.89;44.10;100538.25;5088451;28;20107;-60